Giovanni Dp — 9HA3395 — position and weather

sailwx.info

Track history (hours):
 
Tides and Currents Weather Stations Pressure Air Temp Water Temp Dewpoint Dewpoint Depression Visibility Wind Speed Wind Dir Waves Ship Positions

Giovanni Dp

Last reported at 2017-Oct-06 22:49 UTC. Time now 2017-Oct-19 13:15 UTC.
Position N 11°07' W 074°53'.
Warning: this ship's position is 12 days out of date.

Length 138 m; draft 7.8 m.

Type: Ship (hazmat cat D). MMSI: 229545000.

Date/timePositionNaut miles runAvg speedWind from/ knotsBaromVisibWave heightAir tempDewpointWater temp
2017-Oct-06 22:49N 11°07' W 074°53'3 9.1
2017-Oct-06 22:30N 11°05' W 074°51'611.5
2017-Oct-06 22:00N 11°01' W 074°47'4 8.0
2017-Oct-06 21:30N 10°57' W 074°46'0 0.0
2017-Oct-06 21:00N 10°57' W 074°46'0 0.0
2017-Oct-06 20:29N 10°57' W 074°46'0 0.0
2017-Oct-06 19:59N 10°57' W 074°46'0 0.0
2017-Oct-06 19:29N 10°57' W 074°46'0 0.0
2017-Oct-06 18:59N 10°57' W 074°46'0 0.0
2017-Oct-06 18:29N 10°57' W 074°46'0 0.0
2017-Oct-06 17:58N 10°57' W 074°46'0 0.0
2017-Oct-06 17:28N 10°57' W 074°46'0 0.0
2017-Oct-06 16:55N 10°57' W 074°46'0 0.0
2017-Oct-06 16:28N 10°57' W 074°46'0 0.0
2017-Oct-06 16:00N 10°57' W 074°46'0 0.0
2017-Oct-06 15:30N 10°57' W 074°46'0 0.0
2017-Oct-06 15:00N 10°57' W 074°46'0 0.0
2017-Oct-06 14:30N 10°57' W 074°46'0 0.0
2017-Oct-06 14:00N 10°57' W 074°46'0 0.0
2017-Oct-06 13:30N 10°57' W 074°46'0 0.0
2017-Oct-06 13:00N 10°57' W 074°46'0 0.0
2017-Oct-06 12:30N 10°57' W 074°46'0 0.0
2017-Oct-06 12:00N 10°57' W 074°46'0 0.0
2017-Oct-06 11:30N 10°57' W 074°46'0 0.0
2017-Oct-06 11:00N 10°57' W 074°46'0 0.0
2017-Oct-06 10:30N 10°57' W 074°46'0 0.0
2017-Oct-06 10:00N 10°57' W 074°46'0 0.0
2017-Oct-06 09:30N 10°57' W 074°46'0 0.0
2017-Oct-06 08:10N 10°57' W 074°46'0 0.0
2017-Oct-06 08:00N 10°57' W 074°46'0 0.0
2017-Oct-06 07:30N 10°57' W 074°46'0 0.0
2017-Oct-06 07:00N 10°57' W 074°46'0 0.0
2017-Oct-06 06:30N 10°57' W 074°46'0 0.0
2017-Oct-06 06:00N 10°57' W 074°46'0 0.0
2017-Oct-06 05:30N 10°57' W 074°46'0 0.1
2017-Oct-06 05:00N 10°57' W 074°45'2 3.6
2017-Oct-06 04:30N 10°59' W 074°46'3 6.8
2017-Oct-06 04:00N 11°02' W 074°48'4 7.3
2017-Oct-06 03:30N 11°04' W 074°51'  
2017-Oct-02 18:50N 16°26' W 062°14'412.6
2017-Oct-02 18:30N 16°28' W 062°09'612.6
2017-Oct-02 18:01N 16°30' W 062°03'612.5
2017-Oct-02 17:30N 16°32' W 061°57'2812.9
2017-Oct-02 15:21N 16°41' W 061°30'412.8
2017-Oct-02 15:00N 16°42' W 061°25'712.9
2017-Oct-02 14:30N 16°44' W 061°19'  
Track history (hours):
 
Tides and Currents Weather Stations Pressure Air Temp Water Temp Dewpoint Dewpoint Depression Visibility Wind Speed Wind Dir Waves Ship Positions

Giovanni Dp

Last reported at 2017-Oct-06 22:49 UTC. Time now 2017-Oct-19 13:15 UTC.
Position N 11°07' W 074°53'.
Warning: this ship's position is 12 days out of date.

Length 138 m; draft 7.8 m.

Type: Ship (hazmat cat D). MMSI: 229545000.

Date/timePositionNaut miles runAvg speedWind from/ knotsBaromVisibWave heightAir tempDewpointWater temp
2017-Oct-06 22:49N 11°07' W 074°53'3 9.1
2017-Oct-06 22:30N 11°05' W 074°51'611.5
2017-Oct-06 22:00N 11°01' W 074°47'4 8.0
2017-Oct-06 21:30N 10°57' W 074°46'0 0.0
2017-Oct-06 21:00N 10°57' W 074°46'0 0.0
2017-Oct-06 20:29N 10°57' W 074°46'0 0.0
2017-Oct-06 19:59N 10°57' W 074°46'0 0.0
2017-Oct-06 19:29N 10°57' W 074°46'0 0.0
2017-Oct-06 18:59N 10°57' W 074°46'0 0.0
2017-Oct-06 18:29N 10°57' W 074°46'0 0.0
2017-Oct-06 17:58N 10°57' W 074°46'0 0.0
2017-Oct-06 17:28N 10°57' W 074°46'0 0.0
2017-Oct-06 16:55N 10°57' W 074°46'0 0.0
2017-Oct-06 16:28N 10°57' W 074°46'0 0.0
2017-Oct-06 16:00N 10°57' W 074°46'0 0.0
2017-Oct-06 15:30N 10°57' W 074°46'0 0.0
2017-Oct-06 15:00N 10°57' W 074°46'0 0.0
2017-Oct-06 14:30N 10°57' W 074°46'0 0.0
2017-Oct-06 14:00N 10°57' W 074°46'0 0.0
2017-Oct-06 13:30N 10°57' W 074°46'0 0.0
2017-Oct-06 13:00N 10°57' W 074°46'0 0.0
2017-Oct-06 12:30N 10°57' W 074°46'0 0.0
2017-Oct-06 12:00N 10°57' W 074°46'0 0.0
2017-Oct-06 11:30N 10°57' W 074°46'0 0.0
2017-Oct-06 11:00N 10°57' W 074°46'0 0.0
2017-Oct-06 10:30N 10°57' W 074°46'0 0.0
2017-Oct-06 10:00N 10°57' W 074°46'0 0.0
2017-Oct-06 09:30N 10°57' W 074°46'0 0.0
2017-Oct-06 08:10N 10°57' W 074°46'0 0.0
2017-Oct-06 08:00N 10°57' W 074°46'0 0.0
2017-Oct-06 07:30N 10°57' W 074°46'0 0.0
2017-Oct-06 07:00N 10°57' W 074°46'0 0.0
2017-Oct-06 06:30N 10°57' W 074°46'0 0.0
2017-Oct-06 06:00N 10°57' W 074°46'0 0.0
2017-Oct-06 05:30N 10°57' W 074°46'0 0.1
2017-Oct-06 05:00N 10°57' W 074°45'2 3.6
2017-Oct-06 04:30N 10°59' W 074°46'3 6.8
2017-Oct-06 04:00N 11°02' W 074°48'4 7.3
2017-Oct-06 03:30N 11°04' W 074°51'  
2017-Oct-02 18:50N 16°26' W 062°14'412.6
2017-Oct-02 18:30N 16°28' W 062°09'612.6
2017-Oct-02 18:01N 16°30' W 062°03'612.5
2017-Oct-02 17:30N 16°32' W 061°57'2812.9
2017-Oct-02 15:21N 16°41' W 061°30'412.8
2017-Oct-02 15:00N 16°42' W 061°25'712.9
2017-Oct-02 14:30N 16°44' W 061°19'  

Dump ship's entire track history